Time;durP1;ratioP1;P1;durP2;ratioP2;P2;SDS_P1;SDS_P2;PMS_P1;PMS_P2;Temp;Humidity;BMP_temperature;BMP_pressure;BME280_temperature;BME280_humidity;BME280_pressure;Samples;Min_cycle;Max_cycle;Signal;HPM_P1;HPM_P2
2022/04/27 00:00:16;;;;;;;8.45;2.40;;;9.20;99.90;;;;;;4879821;29;20092;-77
2022/04/27 00:02:42;;;;;;;7.80;2.38;;;9.20;99.90;;;;;;4863438;29;20052;-77
2022/04/27 00:05:09;;;;;;;6.65;2.15;;;9.10;99.90;;;;;;4879818;29;20056;-77
2022/04/27 00:07:35;;;;;;;7.40;2.38;;;9.20;99.90;;;;;;4879845;29;20070;-77
2022/04/27 00:10:00;;;;;;;6.20;2.40;;;9.20;99.90;;;;;;4879801;29;20128;-77
2022/04/27 00:12:26;;;;;;;5.72;2.42;;;9.20;99.90;;;;;;4878332;29;20189;-77
2022/04/27 00:14:52;;;;;;;6.25;2.67;;;9.20;99.90;;;;;;4863059;29;20053;-76
2022/04/27 00:17:18;;;;;;;8.82;2.78;;;9.20;99.90;;;;;;4879684;29;20132;-76
2022/04/27 00:19:44;;;;;;;6.20;2.40;;;9.10;99.90;;;;;;4879726;29;20057;-76
2022/04/27 00:22:14;;;;;;;5.90;2.60;;;9.10;99.90;;;;;;4879728;29;20041;-76
2022/04/27 00:24:39;;;;;;;10.63;3.10;;;9.10;99.90;;;;;;4879686;29;20052;-76
2022/04/27 00:27:05;;;;;;;5.95;2.80;;;9.10;99.90;;;;;;4879717;29;20037;-77
2022/04/27 00:29:32;;;;;;;4.40;2.38;;;9.10;99.90;;;;;;4879673;29;20519;-76
2022/04/27 00:31:57;;;;;;;6.45;2.75;;;9.10;99.90;;;;;;4862945;29;20073;-76
2022/04/27 00:34:23;;;;;;;5.68;2.00;;;9.10;99.90;;;;;;4879345;29;20041;-76
2022/04/27 00:36:48;;;;;;;5.40;2.38;;;9.10;99.90;;;;;;4879446;29;20073;-77
2022/04/27 00:39:14;;;;;;;5.28;2.55;;;9.10;99.90;;;;;;4878283;29;20060;-77
2022/04/27 00:41:58;;;;;;;6.38;2.30;;;9.10;99.90;;;;;;4879670;29;20051;-77
2022/04/27 00:44:26;;;;;;;4.80;2.17;;;9.10;99.90;;;;;;4862620;29;20056;-77
2022/04/27 00:46:52;;;;;;;5.78;2.20;;;9.10;99.90;;;;;;4879584;29;20068;-77
2022/04/27 00:49:17;;;;;;;5.20;2.17;;;9.10;99.90;;;;;;4879491;29;20390;-76
2022/04/27 00:51:43;;;;;;;6.30;2.40;;;9.00;99.90;;;;;;4862769;29;20092;-77
2022/04/27 00:54:09;;;;;;;5.28;2.08;;;9.10;99.90;;;;;;4862638;29;20116;-76
2022/04/27 00:56:37;;;;;;;5.95;2.08;;;9.10;99.90;;;;;;4879455;29;20394;-77
2022/04/27 00:59:02;;;;;;;5.45;2.40;;;9.10;99.90;;;;;;4879493;29;20049;-77
2022/04/27 01:01:28;;;;;;;6.68;2.40;;;9.10;99.90;;;;;;4881906;29;20128;-77
2022/04/27 01:03:54;;;;;;;7.70;2.45;;;9.00;99.90;;;;;;4882764;29;20397;-77
2022/04/27 01:06:21;;;;;;;5.60;2.13;;;9.10;99.90;;;;;;4866052;29;20049;-77
2022/04/27 01:08:47;;;;;;;4.00;1.98;;;9.00;99.90;;;;;;4882783;29;20041;-77
2022/04/27 01:11:14;;;;;;;5.93;2.10;;;9.10;99.90;;;;;;4865990;29;20057;-76
2022/04/27 01:13:40;;;;;;;7.18;2.45;;;9.00;99.90;;;;;;4865726;29;20049;-76
2022/04/27 01:16:06;;;;;;;6.82;2.20;;;9.00;99.90;;;;;;4865700;29;20049;-76
2022/04/27 01:18:32;;;;;;;6.97;3.00;;;8.90;99.90;;;;;;4882519;29;20045;-76
2022/04/27 01:20:58;;;;;;;10.93;2.58;;;9.00;99.90;;;;;;4882429;29;20051;-76
2022/04/27 01:23:24;;;;;;;4.90;2.72;;;9.00;99.90;;;;;;4865748;29;20049;-76
2022/04/27 01:25:57;;;;;;;17.02;2.50;;;9.00;99.90;;;;;;4882261;29;20068;-76
2022/04/27 01:28:30;;;;;;;5.18;1.83;;;9.00;99.90;;;;;;4882383;29;20493;-76
2022/04/27 01:31:07;;;;;;;5.30;2.22;;;9.00;99.90;;;;;;4882135;29;20041;-76
2022/04/27 01:33:36;;;;;;;3.53;2.00;;;8.90;99.90;;;;;;4882185;29;20089;-76
2022/04/27 01:36:03;;;;;;;5.60;1.80;;;9.00;99.90;;;;;;4882162;29;20045;-76
2022/04/27 01:38:40;;;;;;;4.18;2.28;;;8.90;99.90;;;;;;4865635;29;20093;-76
2022/04/27 01:41:06;;;;;;;7.63;2.20;;;8.90;99.90;;;;;;4882181;29;20101;-76
2022/04/27 01:43:33;;;;;;;10.18;2.90;;;8.90;99.90;;;;;;4881894;29;20056;-76
2022/04/27 01:45:59;;;;;;;4.72;2.35;;;9.00;99.90;;;;;;4881881;29;20550;-76
2022/04/27 01:48:28;;;;;;;6.80;2.67;;;9.00;99.90;;;;;;4881979;29;20097;-76
2022/04/27 01:50:54;;;;;;;6.72;2.88;;;9.00;99.90;;;;;;4865502;29;20092;-75
2022/04/27 01:56:05;;;;;;;8.05;3.10;;;8.90;99.90;;;;;;4881643;29;20460;-75
2022/04/27 01:58:31;;;;;;;4.85;2.45;;;9.00;99.90;;;;;;4881642;29;20045;-75
2022/04/27 02:00:57;;;;;;;6.40;2.55;;;8.90;99.90;;;;;;4880758;29;20413;-76
2022/04/27 02:03:24;;;;;;;5.47;3.00;;;8.90;99.90;;;;;;4881698;29;20052;-76
2022/04/27 02:05:50;;;;;;;5.75;2.60;;;8.80;99.90;;;;;;4881662;29;20041;-76
2022/04/27 02:08:16;;;;;;;9.20;2.63;;;8.90;99.90;;;;;;4881627;29;20048;-76
2022/04/27 02:10:42;;;;;;;6.45;2.70;;;8.80;99.90;;;;;;4881411;29;20052;-77
2022/04/27 02:13:09;;;;;;;8.00;2.95;;;8.80;99.90;;;;;;4864689;29;20055;-77
2022/04/27 02:15:35;;;;;;;7.80;3.08;;;8.80;99.90;;;;;;4864773;29;20482;-77
2022/04/27 02:18:02;;;;;;;5.90;2.78;;;8.90;99.90;;;;;;4864948;29;20065;-76
2022/04/27 02:20:28;;;;;;;4.97;2.35;;;8.80;99.90;;;;;;4881364;29;20045;-76
2022/04/27 02:22:54;;;;;;;6.28;3.40;;;8.80;99.90;;;;;;4881366;29;20101;-76
2022/04/27 02:25:21;;;;;;;9.65;2.92;;;8.80;99.90;;;;;;4881409;29;20049;-76
2022/04/27 02:27:47;;;;;;;9.07;2.95;;;8.80;99.90;;;;;;4881355;29;20066;-76
2022/04/27 02:30:13;;;;;;;7.40;2.75;;;8.80;99.90;;;;;;4881301;29;20103;-76
2022/04/27 02:32:39;;;;;;;6.45;2.47;;;8.80;99.90;;;;;;4881077;29;20443;-76
2022/04/27 02:35:06;;;;;;;10.57;3.67;;;8.80;99.90;;;;;;4881169;29;20128;-76
2022/04/27 02:37:36;;;;;;;10.05;3.50;;;8.80;99.90;;;;;;4864415;29;20405;-77
2022/04/27 02:40:03;;;;;;;5.18;2.70;;;8.80;99.90;;;;;;4881047;29;20084;-77
2022/04/27 02:42:29;;;;;;;6.18;2.90;;;8.80;99.90;;;;;;4879662;29;20063;-77
2022/04/27 02:44:58;;;;;;;10.27;3.78;;;8.80;99.90;;;;;;4880726;29;20135;-77
2022/04/27 02:47:24;;;;;;;7.50;3.15;;;8.80;99.90;;;;;;4864294;29;20053;-77
2022/04/27 02:52:34;;;;;;;8.70;2.72;;;8.80;99.90;;;;;;4864071;29;20068;-76
2022/04/27 02:55:00;;;;;;;13.63;3.42;;;8.80;99.90;;;;;;4864347;29;20057;-76
2022/04/27 02:57:26;;;;;;;9.30;3.28;;;8.80;99.90;;;;;;4880829;29;20040;-76
2022/04/27 02:59:52;;;;;;;6.78;2.90;;;8.70;99.90;;;;;;4879367;29;20124;-77
2022/04/27 03:02:18;;;;;;;5.90;2.70;;;8.70;99.90;;;;;;4863900;29;20045;-76
2022/04/27 03:04:44;;;;;;;7.65;2.95;;;8.70;99.90;;;;;;4880706;29;20044;-76
2022/04/27 03:07:09;;;;;;;9.80;3.50;;;8.60;99.90;;;;;;4863855;29;20045;-76
2022/04/27 03:09:36;;;;;;;7.88;3.17;;;8.60;99.90;;;;;;4880614;29;20493;-76
2022/04/27 03:12:02;;;;;;;6.78;2.95;;;8.60;99.90;;;;;;4863797;29;20061;-76
2022/04/27 03:14:28;;;;;;;7.60;3.15;;;8.60;99.90;;;;;;4880205;29;20048;-76
2022/04/27 03:16:55;;;;;;;7.20;2.90;;;8.60;99.90;;;;;;4863840;29;20072;-76
2022/04/27 03:19:20;;;;;;;7.32;3.30;;;8.60;99.90;;;;;;4880632;29;20068;-76
2022/04/27 03:21:46;;;;;;;5.80;3.42;;;8.60;99.90;;;;;;4880521;29;20052;-76
2022/04/27 03:24:12;;;;;;;12.27;3.67;;;8.60;99.90;;;;;;4863260;29;20056;-77
2022/04/27 03:26:37;;;;;;;5.88;2.90;;;8.60;99.90;;;;;;4880402;29;20196;-75
2022/04/27 03:29:03;;;;;;;9.07;4.38;;;8.60;99.90;;;;;;4880359;29;20041;-75
2022/04/27 03:31:29;;;;;;;6.55;3.05;;;8.60;99.90;;;;;;4880087;29;20078;-75
2022/04/27 03:33:55;;;;;;;7.20;3.85;;;8.60;99.90;;;;;;4863458;29;20549;-75
2022/04/27 03:36:21;;;;;;;7.15;3.00;;;8.60;99.90;;;;;;4880111;29;20182;-75
2022/04/27 03:38:50;;;;;;;7.93;3.00;;;8.60;99.90;;;;;;4863730;29;20052;-76
2022/04/27 03:41:22;;;;;;;8.98;3.05;;;8.60;99.90;;;;;;4880056;29;20131;-75
2022/04/27 03:43:49;;;;;;;5.05;2.65;;;8.60;99.90;;;;;;4879736;29;20399;-76
2022/04/27 03:46:15;;;;;;;10.85;2.90;;;8.60;99.90;;;;;;4863484;29;20061;-76
2022/04/27 03:48:41;;;;;;;7.22;3.00;;;8.60;99.90;;;;;;4879890;29;20048;-76
2022/04/27 03:51:07;;;;;;;7.28;2.72;;;8.60;99.90;;;;;;4879740;29;20045;-75
2022/04/27 03:53:33;;;;;;;9.88;3.00;;;8.60;99.90;;;;;;4863280;29;20387;-75
2022/04/27 03:55:58;;;;;;;11.27;2.63;;;8.60;99.90;;;;;;4879831;29;20493;-75
2022/04/27 03:58:24;;;;;;;8.57;3.03;;;8.60;99.90;;;;;;4879963;29;20049;-75
2022/04/27 04:00:50;;;;;;;11.68;3.70;;;8.60;99.90;;;;;;4863164;29;20049;-76
2022/04/27 04:03:15;;;;;;;5.63;2.90;;;8.60;99.90;;;;;;4863047;29;20048;-76
2022/04/27 04:05:41;;;;;;;10.75;3.38;;;8.60;99.90;;;;;;4879901;29;20044;-76
2022/04/27 04:08:07;;;;;;;7.00;2.97;;;8.60;99.90;;;;;;4863343;29;20413;-76
2022/04/27 04:10:33;;;;;;;7.50;2.70;;;8.60;99.90;;;;;;4862902;29;20131;-76
2022/04/27 04:12:58;;;;;;;8.50;2.50;;;8.60;99.90;;;;;;4879765;29;20129;-76
2022/04/27 04:15:24;;;;;;;4.63;2.45;;;8.60;99.90;;;;;;4879469;29;20084;-75
2022/04/27 04:17:50;;;;;;;11.93;3.83;;;8.60;99.90;;;;;;4878483;29;20492;-75
2022/04/27 04:20:17;;;;;;;6.13;2.78;;;8.60;99.90;;;;;;4863033;29;20071;-76
2022/04/27 04:22:43;;;;;;;9.60;3.13;;;8.60;99.90;;;;;;4878175;29;20064;-75
2022/04/27 04:30:39;;;;;;;7.68;3.45;;;8.80;99.90;;;;;;4879600;29;20072;-76
2022/04/27 04:33:05;;;;;;;10.25;2.90;;;8.80;99.90;;;;;;4862880;29;20395;-76
2022/04/27 04:35:31;;;;;;;8.25;3.00;;;8.80;99.90;;;;;;4865444;29;20052;-76
2022/04/27 04:37:57;;;;;;;8.10;2.72;;;8.70;99.90;;;;;;4866453;29;20060;-75
2022/04/27 04:40:22;;;;;;;8.18;2.60;;;8.70;99.90;;;;;;4882987;29;20049;-75
2022/04/27 04:42:48;;;;;;;6.07;3.28;;;8.80;99.90;;;;;;4882938;29;20084;-76
2022/04/27 04:45:14;;;;;;;7.32;3.00;;;8.80;99.90;;;;;;4883211;29;20409;-76
2022/04/27 04:47:42;;;;;;;11.82;3.40;;;8.80;99.90;;;;;;4866396;29;20080;-76
2022/04/27 04:50:09;;;;;;;6.70;2.70;;;8.80;99.90;;;;;;4882757;29;20136;-76
2022/04/27 04:52:35;;;;;;;7.38;3.22;;;8.70;99.90;;;;;;4882571;29;20132;-76
2022/04/27 04:55:01;;;;;;;9.57;3.03;;;8.70;99.90;;;;;;4865851;29;20060;-76
2022/04/27 04:57:26;;;;;;;12.10;3.50;;;8.80;99.90;;;;;;4881640;29;20108;-76
2022/04/27 04:59:52;;;;;;;10.75;2.88;;;8.70;99.90;;;;;;4866120;29;20079;-76
2022/04/27 05:02:17;;;;;;;9.52;2.70;;;8.70;99.90;;;;;;4882716;29;20132;-76
2022/04/27 05:04:43;;;;;;;7.68;3.63;;;8.70;99.90;;;;;;4882463;29;20065;-76
2022/04/27 05:07:09;;;;;;;9.45;3.20;;;8.70;99.90;;;;;;4882706;29;20041;-76
2022/04/27 05:09:35;;;;;;;9.18;4.05;;;8.70;99.90;;;;;;4882680;29;20081;-76
2022/04/27 05:12:00;;;;;;;14.20;4.95;;;8.70;99.90;;;;;;4882123;29;20052;-76
2022/04/27 05:14:26;;;;;;;23.75;6.13;;;8.90;99.90;;;;;;4882402;29;20077;-77
2022/04/27 05:16:52;;;;;;;14.32;4.55;;;8.90;99.90;;;;;;4882207;29;20045;-76
2022/04/27 05:19:17;;;;;;;24.60;5.15;;;8.90;99.90;;;;;;4865364;29;20092;-76
2022/04/27 05:21:43;;;;;;;24.27;4.97;;;9.00;99.90;;;;;;4881306;29;20104;-76
2022/04/27 05:24:08;;;;;;;21.58;4.45;;;8.90;99.90;;;;;;4880891;29;20064;-76
2022/04/27 05:26:34;;;;;;;16.80;4.68;;;9.00;99.90;;;;;;4865541;29;20049;-76
2022/04/27 05:31:58;;;;;;;15.20;4.30;;;9.00;99.90;;;;;;4881911;29;20041;-76
2022/04/27 05:34:30;;;;;;;18.60;4.65;;;9.00;99.90;;;;;;4882226;29;20119;-76
2022/04/27 05:36:56;;;;;;;15.10;7.63;;;9.10;99.90;;;;;;4882070;29;20059;-76
2022/04/27 05:39:22;;;;;;;18.40;4.50;;;9.10;99.90;;;;;;4880682;29;20518;-76
2022/04/27 05:41:52;;;;;;;16.02;3.95;;;9.10;99.90;;;;;;4880519;29;20485;-76
2022/04/27 05:44:19;;;;;;;17.52;3.95;;;9.10;99.90;;;;;;4864849;29;20167;-76
2022/04/27 05:46:45;;;;;;;19.63;4.28;;;9.10;99.90;;;;;;4864289;29;20421;-77
2022/04/27 05:49:12;;;;;;;13.23;4.53;;;9.20;99.90;;;;;;4865018;29;20486;-77
2022/04/27 05:51:37;;;;;;;23.13;4.55;;;9.10;99.90;;;;;;4881629;29;20485;-77
2022/04/27 05:54:03;;;;;;;14.95;4.35;;;9.20;99.90;;;;;;4881874;29;20078;-77
2022/04/27 05:56:29;;;;;;;14.20;4.38;;;9.20;99.90;;;;;;4881706;29;20044;-76
2022/04/27 05:58:54;;;;;;;21.13;5.43;;;9.10;99.90;;;;;;4881529;29;20434;-76
2022/04/27 06:01:20;;;;;;;17.52;4.35;;;9.10;99.90;;;;;;4881745;29;20045;-76
2022/04/27 06:03:46;;;;;;;19.75;4.53;;;9.10;99.90;;;;;;4881692;29;20128;-76
2022/04/27 06:06:11;;;;;;;12.20;4.18;;;9.20;99.90;;;;;;4881578;29;20084;-77
2022/04/27 06:08:40;;;;;;;17.00;4.32;;;9.20;99.90;;;;;;4881545;29;20049;-76
2022/04/27 06:11:06;;;;;;;15.90;4.15;;;9.20;99.90;;;;;;4865067;29;20084;-77
2022/04/27 06:13:31;;;;;;;16.88;4.32;;;9.20;99.90;;;;;;4881339;29;20139;-75
2022/04/27 06:15:57;;;;;;;21.80;4.72;;;9.20;99.90;;;;;;4864480;29;20181;-76
2022/04/27 06:18:23;;;;;;;17.17;3.83;;;9.30;99.90;;;;;;4881248;29;20037;-77
2022/04/27 06:20:48;;;;;;;20.05;3.80;;;9.30;99.90;;;;;;4881308;29;20049;-77
2022/04/27 06:23:14;;;;;;;15.98;4.15;;;9.30;99.90;;;;;;4881310;29;20478;-77
2022/04/27 06:25:41;;;;;;;15.52;4.43;;;9.40;99.90;;;;;;4864710;29;20062;-77
2022/04/27 06:28:07;;;;;;;19.58;4.45;;;9.40;99.90;;;;;;4864233;29;20462;-77
2022/04/27 06:30:35;;;;;;;26.95;4.53;;;9.40;99.90;;;;;;4881135;29;20041;-77
2022/04/27 06:33:01;;;;;;;18.52;4.82;;;9.40;99.90;;;;;;4864041;29;20529;-77
2022/04/27 06:35:27;;;;;;;15.25;4.40;;;9.40;99.90;;;;;;4891049;29;20056;-77
2022/04/27 06:37:53;;;;;;;13.43;3.95;;;9.50;99.90;;;;;;4881000;29;20047;-77
2022/04/27 06:40:18;;;;;;;21.35;4.90;;;9.40;99.90;;;;;;4880608;29;20417;-77
2022/04/27 06:42:44;;;;;;;21.27;4.22;;;9.40;99.90;;;;;;4880722;29;20128;-77
2022/04/27 06:45:11;;;;;;;15.40;4.68;;;9.50;99.90;;;;;;4880781;29;20109;-76
2022/04/27 06:47:37;;;;;;;13.43;4.03;;;9.50;99.90;;;;;;4863189;29;20045;-76
2022/04/27 06:50:03;;;;;;;15.45;4.28;;;9.50;99.90;;;;;;4863627;29;20063;-76
2022/04/27 06:52:28;;;;;;;16.20;4.30;;;9.50;99.90;;;;;;4880242;29;20103;-77
2022/04/27 06:54:54;;;;;;;24.00;4.20;;;9.60;99.90;;;;;;4880437;29;20124;-76
2022/04/27 06:57:19;;;;;;;16.83;4.78;;;9.50;99.90;;;;;;4879639;29;20055;-77
2022/04/27 06:59:45;;;;;;;13.95;4.75;;;9.60;99.90;;;;;;4880187;29;20045;-77
2022/04/27 07:02:13;;;;;;;16.85;4.90;;;9.50;99.90;;;;;;4863537;29;20048;-77
2022/04/27 07:04:41;;;;;;;11.85;4.35;;;9.60;99.90;;;;;;4880444;29;20048;-76
2022/04/27 07:07:07;;;;;;;17.30;5.80;;;9.60;99.90;;;;;;4880323;29;20048;-76
2022/04/27 07:09:33;;;;;;;21.05;4.53;;;9.60;99.90;;;;;;4863332;29;20088;-77
2022/04/27 07:11:59;;;;;;;19.20;4.10;;;9.60;99.90;;;;;;4863182;29;20092;-76
2022/04/27 07:14:25;;;;;;;15.05;4.28;;;9.70;99.90;;;;;;4863279;29;20059;-76
2022/04/27 07:16:50;;;;;;;19.70;3.92;;;9.50;99.90;;;;;;4863625;29;20087;-75
2022/04/27 07:19:17;;;;;;;14.80;4.40;;;9.50;99.90;;;;;;4880046;29;20049;-76
2022/04/27 07:21:43;;;;;;;16.38;4.00;;;9.50;99.90;;;;;;4880248;29;20047;-76
2022/04/27 07:24:09;;;;;;;22.80;5.50;;;9.60;99.90;;;;;;4879974;29;20132;-76
2022/04/27 07:26:35;;;;;;;12.23;4.18;;;9.60;99.90;;;;;;4872294;29;20139;-75
2022/04/27 07:29:00;;;;;;;28.15;5.22;;;9.60;99.90;;;;;;4881739;29;20052;-76
2022/04/27 07:31:26;;;;;;;18.30;5.13;;;9.60;99.90;;;;;;4881673;29;20088;-76
2022/04/27 07:33:52;;;;;;;19.00;4.70;;;9.70;99.90;;;;;;4898641;29;20053;-76
2022/04/27 07:36:18;;;;;;;20.27;5.15;;;9.70;99.90;;;;;;4878818;29;20498;-76
2022/04/27 07:38:44;;;;;;;21.98;5.53;;;9.60;99.90;;;;;;4895570;29;20560;-76
2022/04/27 07:41:10;;;;;;;20.17;4.50;;;9.70;99.90;;;;;;4898609;29;20141;-76
2022/04/27 07:43:36;;;;;;;17.15;4.57;;;9.80;99.90;;;;;;4881366;29;20393;-76
2022/04/27 07:46:05;;;;;;;13.23;4.68;;;9.90;99.90;;;;;;4881485;29;20055;-77
2022/04/27 07:48:32;;;;;;;21.48;5.13;;;9.90;99.90;;;;;;4898321;29;20132;-77
2022/04/27 07:51:03;;;;;;;26.05;5.15;;;9.80;99.90;;;;;;4881465;29;20444;-77
2022/04/27 07:53:29;;;;;;;19.23;4.95;;;9.90;99.90;;;;;;4881414;29;20505;-77
2022/04/27 07:55:55;;;;;;;19.50;4.72;;;9.90;99.90;;;;;;4897545;29;20068;-76
2022/04/27 07:58:21;;;;;;;14.02;4.68;;;9.90;99.90;;;;;;4897971;29;20076;-76
2022/04/27 08:00:46;;;;;;;17.15;3.95;;;10.00;99.90;;;;;;4898360;29;20044;-76
2022/04/27 08:03:12;;;;;;;15.93;4.13;;;10.00;99.90;;;;;;4898358;29;20056;-77
2022/04/27 08:05:38;;;;;;;19.58;5.10;;;10.00;99.90;;;;;;4880816;29;20208;-77
2022/04/27 08:08:05;;;;;;;15.60;4.30;;;10.10;99.90;;;;;;4898008;29;20072;-77
2022/04/27 08:10:31;;;;;;;15.43;4.90;;;10.10;99.90;;;;;;4884513;29;20401;-77
2022/04/27 08:12:57;;;;;;;19.00;5.15;;;10.10;99.90;;;;;;4885252;29;20502;-76
2022/04/27 08:15:24;;;;;;;18.77;5.53;;;10.10;99.90;;;;;;4885163;29;20059;-77
2022/04/27 08:17:53;;;;;;;20.90;5.47;;;10.20;99.90;;;;;;4885108;29;20048;-76
2022/04/27 08:23:09;;;;;;;20.05;4.18;;;10.40;99.90;;;;;;4885159;29;20123;-77
2022/04/27 08:25:36;;;;;;;24.52;5.82;;;10.30;99.90;;;;;;4884805;29;20052;-76
2022/04/27 08:28:06;;;;;;;16.00;4.10;;;10.40;99.90;;;;;;4901001;29;20638;-76
2022/04/27 08:30:33;;;;;;;13.57;3.67;;;10.40;99.90;;;;;;4900386;29;20049;-76
2022/04/27 08:33:01;;;;;;;15.93;4.50;;;10.40;99.90;;;;;;4882702;29;20052;-80
2022/04/27 08:35:28;;;;;;;19.13;4.90;;;10.50;99.90;;;;;;4884558;29;20040;-82
2022/04/27 08:37:54;;;;;;;13.30;4.03;;;10.60;99.90;;;;;;4884571;29;20057;-81
2022/04/27 08:40:20;;;;;;;21.80;4.68;;;10.60;99.90;;;;;;4884561;29;20045;-83
2022/04/27 08:42:47;;;;;;;20.70;5.10;;;10.60;99.90;;;;;;4884553;29;20049;-83
2022/04/27 08:45:13;;;;;;;21.73;4.53;;;10.50;99.90;;;;;;4884596;29;20084;-84
2022/04/27 08:47:39;;;;;;;19.08;4.97;;;10.60;99.90;;;;;;4884869;29;20131;-83
2022/04/27 08:50:13;;;;;;;20.05;4.60;;;10.60;99.90;;;;;;4884486;29;20071;-76
2022/04/27 08:52:40;;;;;;;15.07;3.63;;;10.70;99.90;;;;;;4901326;29;20059;-74
2022/04/27 08:55:06;;;;;;;17.90;5.55;;;10.70;99.90;;;;;;4900236;29;20040;-75
2022/04/27 08:57:32;;;;;;;12.60;4.10;;;10.80;99.90;;;;;;4901326;29;20040;-77
2022/04/27 08:59:58;;;;;;;22.73;5.00;;;10.90;99.90;;;;;;4884126;29;20066;-77
2022/04/27 09:02:28;;;;;;;14.95;4.50;;;10.90;99.90;;;;;;4884398;29;20052;-76
2022/04/27 09:05:07;;;;;;;16.63;4.70;;;10.90;99.90;;;;;;4900916;29;20106;-76
2022/04/27 09:07:43;;;;;;;21.98;5.82;;;11.00;99.90;;;;;;4884356;29;20048;-75
2022/04/27 09:10:11;;;;;;;25.45;5.28;;;11.10;99.90;;;;;;4884260;29;20101;-75
2022/04/27 09:12:47;;;;;;;19.90;4.47;;;11.20;99.90;;;;;;4884214;29;20139;-75
2022/04/27 09:15:14;;;;;;;15.00;4.07;;;11.10;99.90;;;;;;4884347;29;20053;-75
2022/04/27 09:23:41;;;;;;;16.60;3.80;;;11.30;99.90;;;;;;4900901;29;20051;-75
2022/04/27 09:26:22;;;;;;;20.95;4.30;;;11.50;99.90;;;;;;4883967;29;20402;-75
2022/04/27 09:28:49;;;;;;;11.93;4.10;;;11.60;99.90;;;;;;4883696;29;20087;-75
2022/04/27 09:31:33;;;;;;;18.33;3.85;;;11.60;99.90;;;;;;4883830;29;20469;-75
2022/04/27 09:34:00;;;;;;;19.08;3.75;;;11.60;99.90;;;;;;4883433;29;20477;-75
2022/04/27 09:36:26;;;;;;;16.77;4.30;;;11.80;99.90;;;;;;4884101;29;20052;-75
2022/04/27 09:38:53;;;;;;;14.32;4.53;;;11.90;99.90;;;;;;4898582;29;20171;-75
2022/04/27 09:41:39;;;;;;;20.35;4.38;;;12.10;99.90;;;;;;4881875;29;20053;-74
2022/04/27 09:44:05;;;;;;;13.95;4.05;;;12.10;99.90;;;;;;4864683;29;20061;-75
2022/04/27 09:46:31;;;;;;;16.42;3.70;;;12.20;99.90;;;;;;4864860;29;20079;-75
2022/04/27 09:49:09;;;;;;;15.75;4.68;;;12.50;99.90;;;;;;4865117;29;20124;-75
2022/04/27 09:51:49;;;;;;;17.48;3.40;;;12.70;99.90;;;;;;4864812;29;20045;-75
2022/04/27 09:54:28;;;;;;;18.73;4.15;;;12.70;99.90;;;;;;4864736;29;20490;-75
2022/04/27 09:57:02;;;;;;;19.08;5.25;;;12.80;99.90;;;;;;4864745;29;20056;-75
2022/04/27 09:59:35;;;;;;;14.57;4.18;;;12.90;99.90;;;;;;4864755;29;20049;-75
2022/04/27 10:02:08;;;;;;;14.73;4.25;;;13.10;99.90;;;;;;4881361;29;20052;-75
2022/04/27 10:04:34;;;;;;;17.27;4.13;;;13.00;99.90;;;;;;4881331;29;20056;-75
2022/04/27 10:07:07;;;;;;;14.93;4.35;;;13.00;99.90;;;;;;4864546;29;20045;-75
2022/04/27 10:09:33;;;;;;;18.42;4.03;;;13.00;99.90;;;;;;4864837;29;20129;-75
2022/04/27 10:12:00;;;;;;;17.20;3.95;;;13.00;99.90;;;;;;4864906;29;20063;-75
2022/04/27 10:14:27;;;;;;;13.43;3.55;;;13.00;99.90;;;;;;4864363;29;20052;-75
2022/04/27 10:16:54;;;;;;;21.48;4.78;;;12.90;99.90;;;;;;4864627;29;20192;-75
2022/04/27 10:19:20;;;;;;;16.50;3.75;;;13.00;99.90;;;;;;4864131;29;20056;-75
2022/04/27 10:21:57;;;;;;;18.40;3.47;;;13.20;99.90;;;;;;4864250;29;20402;-74
2022/04/27 10:24:38;;;;;;;21.08;5.32;;;13.20;99.90;;;;;;4864466;29;20053;-74
2022/04/27 10:27:33;;;;;;;14.35;3.58;;;13.30;99.90;;;;;;4864042;29;20085;-74
2022/04/27 10:30:05;;;;;;;10.75;3.63;;;13.10;99.90;;;;;;4852280;29;20061;-73
2022/04/27 10:32:41;;;;;;;13.23;3.63;;;13.20;99.90;;;;;;4863805;29;20428;-74
2022/04/27 10:35:12;;;;;;;11.43;3.30;;;13.30;99.90;;;;;;4863911;29;20056;-75
2022/04/27 10:37:58;;;;;;;19.48;3.97;;;13.40;99.90;;;;;;4863970;29;20408;-75
2022/04/27 10:40:29;;;;;;;15.13;3.38;;;13.40;99.90;;;;;;4880660;29;20045;-75
2022/04/27 10:43:04;;;;;;;12.25;3.97;;;13.50;99.90;;;;;;4863995;29;20079;-74
2022/04/27 10:45:29;;;;;;;10.98;3.22;;;13.40;99.90;;;;;;4863936;29;20100;-74
2022/04/27 10:47:55;;;;;;;14.43;3.72;;;13.40;99.90;;;;;;4863944;29;20045;-74
2022/04/27 10:50:28;;;;;;;12.63;3.40;;;13.40;99.90;;;;;;4864149;29;20053;-74
2022/04/27 10:52:56;;;;;;;15.95;3.75;;;13.40;99.90;;;;;;4848501;29;20410;-75
2022/04/27 10:55:42;;;;;;;13.15;3.28;;;13.30;99.90;;;;;;4880550;29;20060;-76
2022/04/27 10:58:28;;;;;;;15.40;3.60;;;13.60;99.90;;;;;;4863967;29;20131;-78
2022/04/27 11:01:02;;;;;;;20.02;4.28;;;13.60;99.90;;;;;;4863678;29;20088;-78
2022/04/27 11:03:39;;;;;;;10.63;3.55;;;13.80;99.90;;;;;;4863723;29;20049;-75
2022/04/27 11:06:06;;;;;;;20.10;4.80;;;13.80;99.90;;;;;;4880319;29;20044;-75
2022/04/27 11:08:58;;;;;;;16.67;3.63;;;13.80;99.90;;;;;;4863828;29;20052;-75
2022/04/27 11:11:26;;;;;;;18.33;4.70;;;13.90;99.90;;;;;;4863442;29;20439;-75
2022/04/27 11:14:01;;;;;;;16.67;3.70;;;14.20;99.90;;;;;;4880300;29;20144;-75
2022/04/27 11:16:27;;;;;;;14.50;3.88;;;14.40;99.90;;;;;;4863509;29;20084;-75
2022/04/27 11:18:58;;;;;;;19.35;3.95;;;14.40;99.90;;;;;;4863422;29;20091;-75
2022/04/27 11:21:25;;;;;;;18.33;4.00;;;14.30;99.90;;;;;;4863512;29;20053;-77
2022/04/27 11:23:52;;;;;;;7.90;3.80;;;14.10;99.90;;;;;;4863445;29;20449;-76
2022/04/27 11:26:17;;;;;;;17.73;4.38;;;13.80;99.90;;;;;;4863489;29;20049;-75
2022/04/27 11:28:44;;;;;;;18.52;4.60;;;13.80;99.90;;;;;;4863308;29;20405;-74
2022/04/27 11:31:14;;;;;;;14.45;3.95;;;13.60;99.90;;;;;;4879839;29;20137;-75
2022/04/27 11:33:41;;;;;;;17.00;3.90;;;13.60;99.90;;;;;;4863071;29;20109;-75
2022/04/27 11:36:29;;;;;;;18.15;3.75;;;13.60;99.90;;;;;;4879701;29;20128;-76
2022/04/27 11:38:56;;;;;;;16.65;4.65;;;13.50;99.90;;;;;;4879744;29;20512;-77
2022/04/27 11:41:25;;;;;;;18.70;4.55;;;13.30;99.90;;;;;;4862911;29;20056;-75
2022/04/27 11:43:54;;;;;;;18.85;4.25;;;13.30;99.90;;;;;;4862253;29;20060;-76
2022/04/27 11:46:20;;;;;;;16.65;4.30;;;13.00;99.90;;;;;;4862917;29;20044;-75
2022/04/27 11:48:49;;;;;;;17.35;4.10;;;13.20;99.90;;;;;;4862924;29;20045;-74
2022/04/27 11:51:15;;;;;;;19.48;5.22;;;13.00;99.90;;;;;;4879878;29;20045;-74
2022/04/27 11:53:47;;;;;;;19.88;5.00;;;13.20;99.90;;;;;;4862826;29;20106;-76
2022/04/27 11:56:18;;;;;;;17.50;4.20;;;13.20;99.90;;;;;;4863088;29;20099;-74
2022/04/27 11:58:45;;;;;;;23.52;5.65;;;13.30;99.90;;;;;;4879876;29;20041;-74
2022/04/27 12:01:21;;;;;;;19.90;4.68;;;13.30;99.90;;;;;;4862951;29;20049;-75
2022/04/27 12:03:49;;;;;;;16.90;4.43;;;13.30;99.90;;;;;;4863050;29;20052;-76
2022/04/27 12:06:20;;;;;;;13.48;4.07;;;13.30;99.90;;;;;;4862966;29;20057;-75
2022/04/27 12:08:46;;;;;;;17.80;4.25;;;13.20;99.90;;;;;;4879719;29;20061;-79
2022/04/27 12:11:24;;;;;;;19.60;4.70;;;13.20;99.90;;;;;;4879638;29;20176;-75
2022/04/27 12:13:54;;;;;;;16.60;5.15;;;13.30;99.90;;;;;;4879511;29;20045;-75
2022/04/27 12:16:19;;;;;;;17.20;4.65;;;13.30;99.90;;;;;;4879290;29;20400;-77
2022/04/27 12:18:59;;;;;;;16.80;5.07;;;13.30;99.90;;;;;;4862922;29;20529;-75
2022/04/27 12:21:24;;;;;;;25.83;5.35;;;13.30;99.90;;;;;;4879393;29;20132;-75
2022/04/27 12:23:51;;;;;;;13.88;4.50;;;13.50;99.90;;;;;;4879592;29;20124;-75
2022/04/27 12:26:18;;;;;;;18.52;4.60;;;13.70;99.90;;;;;;4879289;29;20056;-76
2022/04/27 12:28:47;;;;;;;16.77;4.43;;;13.60;99.90;;;;;;4879555;29;20049;-77
2022/04/27 12:31:17;;;;;;;20.33;4.47;;;13.70;99.90;;;;;;4862640;29;20056;-76
2022/04/27 12:33:51;;;;;;;20.17;4.45;;;13.50;99.90;;;;;;4862828;29;20421;-76
2022/04/27 12:39:23;;;;;;;19.88;5.05;;;13.50;99.90;;;;;;4862555;29;20068;-78
2022/04/27 12:41:50;;;;;;;20.60;4.32;;;13.30;99.90;;;;;;4862906;29;20044;-78
2022/04/27 12:44:24;;;;;;;13.50;4.43;;;13.20;99.90;;;;;;4879075;29;20144;-77
2022/04/27 12:47:08;;;;;;;16.67;4.40;;;13.50;99.90;;;;;;4862427;29;20132;-75
2022/04/27 12:49:38;;;;;;;18.50;4.43;;;13.40;99.90;;;;;;4879299;29;20049;-75
2022/04/27 12:52:18;;;;;;;20.35;4.55;;;13.60;99.90;;;;;;4879327;29;20056;-76
2022/04/27 12:54:45;;;;;;;17.40;4.65;;;13.40;99.90;;;;;;4879079;29;20083;-75
2022/04/27 12:57:11;;;;;;;15.27;4.53;;;13.40;99.90;;;;;;4866090;29;20045;-77
2022/04/27 12:59:56;;;;;;;13.98;4.22;;;13.50;99.90;;;;;;4866000;29;20513;-75
2022/04/27 13:02:22;;;;;;;17.25;4.43;;;13.50;99.90;;;;;;4882574;29;20093;-75
2022/04/27 13:04:48;;;;;;;14.23;5.05;;;13.50;99.90;;;;;;4882364;29;20561;-77
2022/04/27 13:07:14;;;;;;;19.42;4.47;;;13.50;99.90;;;;;;4865968;29;20081;-78
2022/04/27 13:12:31;;;;;;;20.10;5.07;;;13.60;99.90;;;;;;4865548;29;20112;-80
2022/04/27 13:14:57;;;;;;;15.30;4.45;;;13.60;99.90;;;;;;4882270;29;20128;-75
2022/04/27 13:17:23;;;;;;;15.38;4.93;;;13.60;99.90;;;;;;4882508;29;20047;-78